createdAt,value
2024-03-11T00:00:38.785Z,11.00
2024-03-11T00:03:29.082Z,9.20
2024-03-11T00:05:57.410Z,11.00
2024-03-11T00:08:27.018Z,11.00
2024-03-11T00:11:01.361Z,11.40
2024-03-11T00:13:35.783Z,10.70
2024-03-11T00:16:04.607Z,10.10
2024-03-11T00:18:35.164Z,12.30
2024-03-11T00:21:03.165Z,11.40
2024-03-11T00:23:31.281Z,10.50
2024-03-11T00:25:59.153Z,10.10
2024-03-11T00:28:29.219Z,10.80
2024-03-11T00:30:57.073Z,9.60
2024-03-11T00:33:24.953Z,10.50
2024-03-11T00:35:53.085Z,10.50
2024-03-11T00:38:21.009Z,9.80
2024-03-11T00:40:48.909Z,10.40
2024-03-11T00:43:17.258Z,9.10
2024-03-11T00:45:45.280Z,9.40
2024-03-11T00:48:13.381Z,9.80
2024-03-11T00:50:41.648Z,9.50
2024-03-11T00:53:10.016Z,9.20
2024-03-11T00:55:40.149Z,9.60
2024-03-11T00:58:08.060Z,9.70
2024-03-11T01:00:36.112Z,10.20
2024-03-11T01:03:04.652Z,9.60
2024-03-11T01:05:33.539Z,10.30
2024-03-11T01:08:01.920Z,9.10
2024-03-11T01:10:30.068Z,10.00
2024-03-11T01:12:57.960Z,9.50
2024-03-11T01:15:27.090Z,9.10
2024-03-11T01:17:56.898Z,10.00
2024-03-11T01:20:25.558Z,9.60
2024-03-11T01:22:54.096Z,8.50
2024-03-11T01:25:22.312Z,10.00
2024-03-11T01:27:50.850Z,9.60
2024-03-11T01:30:18.802Z,9.90
2024-03-11T01:32:47.990Z,9.20
2024-03-11T01:35:16.223Z,9.60
2024-03-11T01:37:44.539Z,9.40
2024-03-11T01:40:16.686Z,9.30
2024-03-11T01:42:45.240Z,8.60
2024-03-11T01:45:14.602Z,10.00
2024-03-11T01:47:44.603Z,9.70
2024-03-11T01:50:15.211Z,9.40
2024-03-11T01:52:50.416Z,9.70
2024-03-11T01:55:19.930Z,9.90
2024-03-11T01:57:51.810Z,9.50
2024-03-11T02:00:23.509Z,9.50
2024-03-11T02:02:56.081Z,9.50
2024-03-11T02:05:27.543Z,9.60
2024-03-11T02:08:02.925Z,10.60
2024-03-11T02:10:31.389Z,10.40
2024-03-11T02:13:00.904Z,9.50
2024-03-11T02:15:29.393Z,10.10
2024-03-11T02:17:57.779Z,11.00
2024-03-11T02:20:28.114Z,10.20
2024-03-11T02:22:57.520Z,10.40
2024-03-11T02:25:29.940Z,10.30
2024-03-11T02:27:59.909Z,10.80
2024-03-11T02:30:28.227Z,10.60
2024-03-11T02:32:56.714Z,10.90
2024-03-11T02:35:25.218Z,11.40
2024-03-11T02:37:53.442Z,11.70
2024-03-11T02:40:28.087Z,11.90
2024-03-11T02:42:57.880Z,11.90
2024-03-11T02:45:28.059Z,12.30
2024-03-11T02:47:56.288Z,12.60
2024-03-11T02:50:25.338Z,11.60
2024-03-11T02:52:53.301Z,11.80
2024-03-11T02:55:23.668Z,12.30
2024-03-11T02:57:52.609Z,10.50
2024-03-11T03:00:21.396Z,11.60
2024-03-11T03:02:51.650Z,11.20
2024-03-11T03:05:20.423Z,12.00
2024-03-11T03:07:48.516Z,12.90
2024-03-11T03:10:16.365Z,11.70
2024-03-11T03:12:44.344Z,11.20
2024-03-11T03:15:12.518Z,11.00
2024-03-11T03:17:40.996Z,10.90
2024-03-11T03:20:12.150Z,10.60
2024-03-11T03:22:40.757Z,10.40
2024-03-11T03:25:08.836Z,9.60
2024-03-11T03:27:36.970Z,10.80
2024-03-11T03:30:05.942Z,10.60
2024-03-11T03:32:34.713Z,10.00
2024-03-11T03:35:02.846Z,10.10
2024-03-11T03:37:31.115Z,9.40
2024-03-11T03:39:59.112Z,10.00
2024-03-11T03:42:28.456Z,9.60
2024-03-11T03:44:56.736Z,10.50
2024-03-11T03:47:25.164Z,11.00
2024-03-11T03:49:54.283Z,11.60
2024-03-11T03:52:22.454Z,10.10
2024-03-11T03:54:50.331Z,11.90
2024-03-11T03:57:18.492Z,11.20
2024-03-11T03:59:46.705Z,11.10
2024-03-11T04:02:14.900Z,12.90
2024-03-11T04:04:42.862Z,12.60
2024-03-11T04:07:10.856Z,11.30
2024-03-11T04:09:39.899Z,10.90
2024-03-11T04:12:08.412Z,10.70
2024-03-11T04:14:38.023Z,10.50
2024-03-11T04:17:07.518Z,10.80
2024-03-11T04:19:37.245Z,11.10
2024-03-11T04:22:05.514Z,10.30
2024-03-11T04:24:34.219Z,11.80
2024-03-11T04:27:03.625Z,10.50
2024-03-11T04:29:31.767Z,10.60
2024-03-11T04:32:00.143Z,11.50
2024-03-11T04:34:28.063Z,11.20
2024-03-11T04:36:56.092Z,11.00
2024-03-11T04:39:24.186Z,11.80
2024-03-11T04:41:52.376Z,10.60
2024-03-11T04:44:20.852Z,10.50
2024-03-11T04:46:48.808Z,11.60
2024-03-11T04:49:16.715Z,11.30
2024-03-11T04:51:44.906Z,11.70
2024-03-11T04:54:12.822Z,11.50
2024-03-11T04:56:40.717Z,12.50
2024-03-11T04:59:09.794Z,12.80
2024-03-11T05:01:38.090Z,11.70
2024-03-11T05:04:06.944Z,11.90
2024-03-11T05:06:35.051Z,10.20
2024-03-11T05:09:03.430Z,8.80
2024-03-11T05:11:31.803Z,9.60
2024-03-11T05:13:59.967Z,8.60
2024-03-11T05:16:28.039Z,8.90
2024-03-11T05:18:55.923Z,9.90
2024-03-11T05:21:26.245Z,9.30
2024-03-11T05:23:55.064Z,10.00
2024-03-11T05:26:24.109Z,10.00
2024-03-11T05:28:52.022Z,10.20
2024-03-11T05:31:19.920Z,9.10
2024-03-11T05:33:47.839Z,10.30
2024-03-11T05:36:15.810Z,10.10
2024-03-11T05:38:43.766Z,10.60
2024-03-11T05:41:11.769Z,11.10
2024-03-11T05:43:41.288Z,11.10
2024-03-11T05:46:09.131Z,9.80
2024-03-11T05:48:39.978Z,11.20
2024-03-11T05:51:08.336Z,10.90
2024-03-11T05:53:38.425Z,10.40
2024-03-11T05:56:12.206Z,10.00
2024-03-11T05:58:40.573Z,9.80
2024-03-11T06:01:08.530Z,9.90
2024-03-11T06:03:37.795Z,10.00
2024-03-11T06:06:06.110Z,9.90
2024-03-11T06:08:34.064Z,10.20
2024-03-11T06:11:02.102Z,9.50
2024-03-11T06:13:32.596Z,9.70
2024-03-11T06:16:01.536Z,10.50
2024-03-11T06:18:29.737Z,10.00
2024-03-11T06:20:58.149Z,9.50
2024-03-11T06:23:26.576Z,10.90
2024-03-11T06:25:55.657Z,11.20
2024-03-11T06:28:24.454Z,10.40
2024-03-11T06:30:52.394Z,10.80
2024-03-11T06:33:23.587Z,11.90
2024-03-11T06:35:51.695Z,12.20
2024-03-11T06:38:19.791Z,11.60
2024-03-11T06:40:48.198Z,12.20
2024-03-11T06:43:16.662Z,11.90
2024-03-11T06:45:44.743Z,12.30
2024-03-11T06:48:13.479Z,11.40
2024-03-11T06:50:41.541Z,13.20
2024-03-11T06:53:09.749Z,13.10
2024-03-11T06:55:39.802Z,12.40
2024-03-11T06:58:07.935Z,12.90
2024-03-11T07:00:35.864Z,13.10
2024-03-11T07:03:03.831Z,13.10
2024-03-11T07:05:34.023Z,13.90
2024-03-11T07:08:08.189Z,14.60
2024-03-11T07:10:36.644Z,13.40
2024-03-11T07:13:05.359Z,14.00
2024-03-11T07:15:33.366Z,13.10
2024-03-11T07:18:01.911Z,13.80
2024-03-11T07:20:29.875Z,13.60
2024-03-11T07:22:58.142Z,13.00
2024-03-11T07:25:28.563Z,14.60
2024-03-11T07:27:56.502Z,13.40
2024-03-11T07:30:24.688Z,12.80
2024-03-11T07:33:16.219Z,13.30
2024-03-11T07:35:44.735Z,13.60
2024-03-11T07:38:13.077Z,14.60
2024-03-11T07:40:43.551Z,13.30
2024-03-11T07:43:13.323Z,13.10
2024-03-11T07:45:41.807Z,14.70
2024-03-11T07:48:16.425Z,13.10
2024-03-11T07:50:44.365Z,12.80
2024-03-11T07:53:15.267Z,13.80
2024-03-11T07:55:43.798Z,13.80
2024-03-11T07:58:12.783Z,13.50
2024-03-11T08:00:43.802Z,13.20
2024-03-11T08:03:12.224Z,13.20
2024-03-11T08:05:40.188Z,13.90
2024-03-11T08:08:11.285Z,13.70
2024-03-11T08:10:41.852Z,13.00
2024-03-11T08:13:12.116Z,13.70
2024-03-11T08:15:40.591Z,13.90
2024-03-11T08:18:10.388Z,13.60
2024-03-11T08:20:38.719Z,14.00
2024-03-11T08:23:07.203Z,13.50
2024-03-11T08:25:36.476Z,13.20
2024-03-11T08:28:04.706Z,12.70
2024-03-11T08:30:32.780Z,12.60
2024-03-11T08:33:01.797Z,12.90
2024-03-11T08:35:30.475Z,12.90
2024-03-11T08:37:58.837Z,13.00
2024-03-11T08:40:26.753Z,13.60
2024-03-11T08:42:57.846Z,13.50
2024-03-11T08:45:29.842Z,13.20
2024-03-11T08:47:59.078Z,12.40
2024-03-11T08:50:27.972Z,13.90
2024-03-11T08:52:56.463Z,13.30
2024-03-11T08:55:24.665Z,12.80
2024-03-11T08:57:54.625Z,13.20
2024-03-11T09:00:28.649Z,14.00
2024-03-11T09:02:56.697Z,13.10
2024-03-11T09:05:24.798Z,12.80
2024-03-11T09:07:52.960Z,12.90
2024-03-11T09:10:21.326Z,11.80
2024-03-11T09:12:50.993Z,12.00
2024-03-11T09:15:20.781Z,12.10
2024-03-11T09:17:52.361Z,12.80
2024-03-11T09:20:23.539Z,11.80
2024-03-11T09:22:53.432Z,11.40
2024-03-11T09:25:26.462Z,12.50
2024-03-11T09:28:02.628Z,12.00
2024-03-11T09:30:34.665Z,17.30
2024-03-11T09:33:03.281Z,14.40
2024-03-11T09:35:31.401Z,12.60
2024-03-11T09:37:59.476Z,12.90
2024-03-11T09:40:31.192Z,12.20
2024-03-11T09:43:03.657Z,13.00
2024-03-11T09:45:36.574Z,11.80
2024-03-11T09:48:06.715Z,12.50
2024-03-11T09:50:36.955Z,11.30
2024-03-11T09:53:08.910Z,11.60
2024-03-11T09:55:38.395Z,11.50
2024-03-11T09:58:11.882Z,9.90
2024-03-11T10:00:50.433Z,12.10
2024-03-11T10:03:29.060Z,12.10
2024-03-11T10:05:59.757Z,11.90
2024-03-11T10:08:32.745Z,11.90
2024-03-11T10:11:16.031Z,11.60
2024-03-11T10:13:44.370Z,11.50
2024-03-11T10:16:19.054Z,12.70
2024-03-11T10:18:54.195Z,11.40
2024-03-11T10:21:22.542Z,10.90
2024-03-11T10:23:52.252Z,11.90
2024-03-11T10:26:20.518Z,10.80
2024-03-11T10:28:50.830Z,11.70
2024-03-11T10:31:29.055Z,11.00
2024-03-11T10:34:25.311Z,12.10
2024-03-11T10:36:57.943Z,11.00
2024-03-11T10:39:38.722Z,10.50
2024-03-11T10:42:16.732Z,11.20
2024-03-11T10:44:47.181Z,11.20
2024-03-11T10:47:23.507Z,12.20
2024-03-11T10:49:55.186Z,11.20
2024-03-11T10:52:24.892Z,11.10
2024-03-11T10:57:40.341Z,11.10
2024-03-11T11:02:51.892Z,11.10
2024-03-11T11:05:25.760Z,11.50
2024-03-11T11:07:57.658Z,10.70
2024-03-11T11:10:31.109Z,10.50
2024-03-11T11:13:02.754Z,11.60
2024-03-11T11:15:31.064Z,11.50
2024-03-11T11:18:00.459Z,10.90
2024-03-11T11:20:32.155Z,10.70
2024-03-11T11:23:01.443Z,11.00
2024-03-11T11:25:43.333Z,11.60
2024-03-11T11:28:15.020Z,11.60
2024-03-11T11:30:46.440Z,12.20
2024-03-11T11:34:06.233Z,11.30
2024-03-11T11:36:41.584Z,11.60
2024-03-11T11:39:16.005Z,11.10
2024-03-11T11:41:53.456Z,11.70
2024-03-11T11:44:26.762Z,12.50
2024-03-11T11:46:56.470Z,12.10
2024-03-11T11:49:28.884Z,11.30
2024-03-11T11:51:58.064Z,12.10
2024-03-11T11:54:36.448Z,12.10
2024-03-11T11:57:06.499Z,11.70
2024-03-11T11:59:34.709Z,11.60
2024-03-11T12:02:02.648Z,12.00
2024-03-11T12:04:30.654Z,11.30
2024-03-11T12:06:59.740Z,12.40
2024-03-11T12:09:27.927Z,11.80
2024-03-11T12:11:59.834Z,10.30
2024-03-11T12:14:27.925Z,12.90
2024-03-11T12:17:06.020Z,12.60
2024-03-11T12:19:35.277Z,11.40
2024-03-11T12:22:03.504Z,11.30
2024-03-11T12:24:32.987Z,12.40
2024-03-11T12:27:00.997Z,11.10
2024-03-11T12:29:29.469Z,11.60
2024-03-11T12:31:58.163Z,12.20
2024-03-11T12:34:26.399Z,11.70
2024-03-11T12:36:56.750Z,11.90
2024-03-11T12:39:28.861Z,13.30
2024-03-11T12:41:58.694Z,12.60
2024-03-11T12:44:28.060Z,11.80
2024-03-11T12:46:57.853Z,11.00
2024-03-11T12:49:29.538Z,11.60
2024-03-11T12:52:13.919Z,11.80
2024-03-11T12:54:43.129Z,11.50
2024-03-11T12:57:12.437Z,14.20
2024-03-11T12:59:46.948Z,13.40
2024-03-11T13:02:21.858Z,13.20
2024-03-11T13:04:52.111Z,12.10
2024-03-11T13:07:21.278Z,11.00
2024-03-11T13:09:54.939Z,12.30
2024-03-11T13:12:23.554Z,15.20
2024-03-11T13:14:53.005Z,12.40
2024-03-11T13:17:23.949Z,11.40
2024-03-11T13:19:58.388Z,11.80
2024-03-11T13:22:31.534Z,11.20
2024-03-11T13:25:09.896Z,11.40
2024-03-11T13:27:37.994Z,11.20
2024-03-11T13:30:14.453Z,14.60
2024-03-11T13:32:42.733Z,13.60
2024-03-11T13:35:10.785Z,12.60
2024-03-11T13:37:39.683Z,11.60
2024-03-11T13:40:08.916Z,11.70
2024-03-11T13:42:37.813Z,11.30
2024-03-11T13:45:06.909Z,10.80
2024-03-11T13:47:34.889Z,13.30
2024-03-11T13:50:02.836Z,11.10
2024-03-11T13:52:31.555Z,11.80
2024-03-11T13:55:00.882Z,11.40
2024-03-11T13:57:28.896Z,9.20
2024-03-11T13:59:56.793Z,10.30
2024-03-11T14:02:25.623Z,10.60
2024-03-11T14:04:54.101Z,10.20
2024-03-11T14:07:24.002Z,11.20
2024-03-11T14:09:52.069Z,11.40
2024-03-11T14:12:20.101Z,11.10
2024-03-11T14:14:48.392Z,11.20
2024-03-11T14:17:16.548Z,11.10
2024-03-11T14:19:44.439Z,11.60
2024-03-11T14:22:12.306Z,11.80
2024-03-11T14:24:40.434Z,12.90
2024-03-11T14:27:08.340Z,11.80
2024-03-11T14:29:36.469Z,11.40
2024-03-11T14:32:11.197Z,11.10
2024-03-11T14:34:40.022Z,11.10
2024-03-11T14:37:08.320Z,11.30
2024-03-11T14:39:36.594Z,11.30
2024-03-11T14:42:04.680Z,10.80
2024-03-11T14:44:32.913Z,10.60
2024-03-11T14:47:01.024Z,11.00
2024-03-11T14:49:34.748Z,11.00
2024-03-11T14:52:04.611Z,11.90
2024-03-11T14:54:33.007Z,11.50
2024-03-11T14:57:02.632Z,12.00
2024-03-11T14:59:32.724Z,11.70
2024-03-11T15:02:02.587Z,12.50
2024-03-11T15:04:32.520Z,12.20
2024-03-11T15:07:01.199Z,12.80
2024-03-11T15:09:29.305Z,12.00
2024-03-11T15:11:58.887Z,11.90
2024-03-11T15:14:26.865Z,13.00
2024-03-11T15:17:01.628Z,12.20
2024-03-11T15:19:29.969Z,12.00
2024-03-11T15:21:58.367Z,12.40
2024-03-11T15:24:26.542Z,12.20
2024-03-11T15:26:54.799Z,11.80
2024-03-11T15:29:23.153Z,11.30
2024-03-11T15:31:51.890Z,11.10
2024-03-11T15:34:20.340Z,10.90
2024-03-11T15:36:49.051Z,12.10
2024-03-11T15:39:20.777Z,11.50
2024-03-11T15:41:50.509Z,11.70
2024-03-11T15:44:18.447Z,12.30
2024-03-11T15:46:46.534Z,12.10
2024-03-11T15:49:14.776Z,11.70
2024-03-11T15:51:43.236Z,11.60
2024-03-11T15:54:11.435Z,11.90
2024-03-11T15:56:39.393Z,11.90
2024-03-11T15:59:08.730Z,12.80
2024-03-11T16:01:37.567Z,11.80
2024-03-11T16:04:06.384Z,12.00
2024-03-11T16:06:34.396Z,12.10
2024-03-11T16:09:03.518Z,12.20
2024-03-11T16:11:32.559Z,13.30
2024-03-11T16:14:00.647Z,12.40
2024-03-11T16:16:29.190Z,12.30
2024-03-11T16:18:57.783Z,13.30
2024-03-11T16:21:26.276Z,12.70
2024-03-11T16:23:54.285Z,14.00
2024-03-11T16:26:22.351Z,13.10
2024-03-11T16:28:50.952Z,14.50
2024-03-11T16:31:21.934Z,14.10
2024-03-11T16:33:50.849Z,15.10
2024-03-11T16:36:18.910Z,14.60
2024-03-11T16:38:52.650Z,15.20
2024-03-11T16:41:21.165Z,15.90
2024-03-11T16:43:50.102Z,16.60
2024-03-11T16:46:18.043Z,18.50
2024-03-11T16:48:47.241Z,19.60
2024-03-11T16:51:18.564Z,19.30
2024-03-11T16:53:48.128Z,18.80
2024-03-11T16:56:16.775Z,18.90
2024-03-11T16:58:44.768Z,16.90
2024-03-11T17:01:16.106Z,16.60
2024-03-11T17:03:46.613Z,16.20
2024-03-11T17:06:15.626Z,17.60
2024-03-11T17:08:44.928Z,18.00
2024-03-11T17:11:13.797Z,18.70
2024-03-11T17:13:41.873Z,18.60
2024-03-11T17:16:10.191Z,18.30
2024-03-11T17:18:38.713Z,17.90
2024-03-11T17:21:11.373Z,18.20
2024-03-11T17:23:39.929Z,18.90
2024-03-11T17:26:09.851Z,17.50
2024-03-11T17:28:37.954Z,20.10
2024-03-11T17:31:06.315Z,20.10
2024-03-11T17:33:36.548Z,19.30
2024-03-11T17:36:05.869Z,20.50
2024-03-11T17:38:34.366Z,19.60
2024-03-11T17:41:02.437Z,19.60
2024-03-11T17:43:30.696Z,20.20
2024-03-11T17:46:00.351Z,18.00
2024-03-11T17:48:29.517Z,18.80
2024-03-11T17:50:59.060Z,17.80
2024-03-11T17:53:27.024Z,18.40
2024-03-11T17:55:56.127Z,19.30
2024-03-11T17:58:25.677Z,19.80
2024-03-11T18:00:54.558Z,21.00
2024-03-11T18:03:22.833Z,20.10
2024-03-11T18:05:52.570Z,19.70
2024-03-11T18:08:21.548Z,20.50
2024-03-11T18:10:50.637Z,21.20
2024-03-11T18:13:18.564Z,20.70
2024-03-11T18:15:47.547Z,20.30
2024-03-11T18:18:21.673Z,19.90
2024-03-11T18:20:52.842Z,20.20
2024-03-11T18:23:20.902Z,20.30
2024-03-11T18:25:53.184Z,20.80
2024-03-11T18:28:23.595Z,20.20
2024-03-11T18:30:52.305Z,20.50
2024-03-11T18:33:20.893Z,20.50
2024-03-11T18:35:49.506Z,21.80
2024-03-11T18:38:17.799Z,21.30
2024-03-11T18:40:48.290Z,21.00
2024-03-11T18:43:17.428Z,20.50
2024-03-11T18:45:49.095Z,21.60
2024-03-11T18:48:19.819Z,21.40
2024-03-11T18:50:48.684Z,21.00
2024-03-11T18:53:16.667Z,21.30
2024-03-11T18:55:45.313Z,20.60
2024-03-11T18:58:13.280Z,20.50
2024-03-11T19:00:42.151Z,20.20
2024-03-11T19:03:11.645Z,20.60
2024-03-11T19:05:39.651Z,21.00
2024-03-11T19:08:08.837Z,20.70
2024-03-11T19:10:36.771Z,21.40
2024-03-11T19:13:05.805Z,21.20
2024-03-11T19:15:34.732Z,19.80
2024-03-11T19:18:03.367Z,20.50
2024-03-11T19:20:32.258Z,20.00
2024-03-11T19:23:00.321Z,20.60
2024-03-11T19:25:29.864Z,22.30
2024-03-11T19:28:00.291Z,20.80
2024-03-11T19:30:29.908Z,20.00
2024-03-11T19:33:01.507Z,19.90
2024-03-11T19:35:30.340Z,21.50
2024-03-11T19:38:15.541Z,23.70
2024-03-11T19:41:04.251Z,21.10
2024-03-11T19:44:13.702Z,23.00
2024-03-11T19:47:12.123Z,22.80
2024-03-11T19:50:23.027Z,22.50
2024-03-11T19:53:19.268Z,21.80
2024-03-11T19:56:12.506Z,22.70
2024-03-11T19:59:18.221Z,21.80
2024-03-11T20:02:15.288Z,21.30
2024-03-11T20:05:22.210Z,23.20
2024-03-11T20:08:22.303Z,22.00
2024-03-11T20:11:27.902Z,22.00
2024-03-11T20:14:10.830Z,23.20
2024-03-11T20:16:53.860Z,22.10
2024-03-11T20:19:45.180Z,22.80
2024-03-11T20:22:42.483Z,22.70
2024-03-11T20:25:42.657Z,21.50
2024-03-11T20:28:33.670Z,24.00
2024-03-11T20:31:03.808Z,22.60
2024-03-11T20:33:32.602Z,21.20
2024-03-11T20:36:01.017Z,22.30
2024-03-11T20:38:29.080Z,22.90
2024-03-11T20:40:57.772Z,23.10
2024-03-11T20:43:25.708Z,21.70
2024-03-11T20:45:54.721Z,21.80
2024-03-11T20:48:22.837Z,23.20
2024-03-11T20:50:50.951Z,22.20
2024-03-11T20:53:20.357Z,23.40
2024-03-11T20:55:49.188Z,23.20
2024-03-11T20:58:17.196Z,24.20
2024-03-11T21:00:45.830Z,23.30
2024-03-11T21:03:16.636Z,23.40
2024-03-11T21:05:45.206Z,23.50
2024-03-11T21:08:13.247Z,22.20
2024-03-11T21:10:43.189Z,23.90
2024-03-11T21:13:11.563Z,24.50
2024-03-11T21:15:41.255Z,24.40
2024-03-11T21:18:13.474Z,26.30
2024-03-11T21:23:09.562Z,24.50
2024-03-11T21:25:53.041Z,24.50
2024-03-11T21:28:22.426Z,23.60
2024-03-11T21:30:54.268Z,24.60
2024-03-11T21:33:27.175Z,24.30
2024-03-11T21:35:55.675Z,25.50
2024-03-11T21:38:29.329Z,27.80
2024-03-11T21:40:59.546Z,24.90
2024-03-11T21:43:28.043Z,25.60
2024-03-11T21:45:56.032Z,26.10
2024-03-11T21:48:24.300Z,26.10
2024-03-11T21:50:52.555Z,27.20
2024-03-11T21:53:21.485Z,26.00
2024-03-11T21:55:49.949Z,25.80
2024-03-11T21:58:17.967Z,26.40
2024-03-11T22:00:45.991Z,25.50
2024-03-11T22:03:13.929Z,25.90
2024-03-11T22:05:42.328Z,25.50
2024-03-11T22:08:11.367Z,25.20
2024-03-11T22:10:39.290Z,26.00
2024-03-11T22:13:07.751Z,25.40
2024-03-11T22:15:36.286Z,22.40
2024-03-11T22:18:05.519Z,25.00
2024-03-11T22:20:33.589Z,25.40
2024-03-11T22:23:01.530Z,25.40
2024-03-11T22:25:29.513Z,25.80
2024-03-11T22:27:57.816Z,25.40
2024-03-11T22:30:25.899Z,26.30
2024-03-11T22:32:53.969Z,25.20
2024-03-11T22:35:22.202Z,25.90
2024-03-11T22:37:50.272Z,24.40
2024-03-11T22:40:18.447Z,24.60
2024-03-11T22:42:48.459Z,24.60
2024-03-11T22:45:16.911Z,25.60
2024-03-11T22:47:45.284Z,24.90
2024-03-11T22:50:13.350Z,23.80
2024-03-11T22:52:41.303Z,25.70
2024-03-11T22:55:09.784Z,24.50
2024-03-11T22:57:38.272Z,23.80
2024-03-11T23:00:26.434Z,24.70
2024-03-11T23:02:55.223Z,24.20
2024-03-11T23:05:23.200Z,23.70
2024-03-11T23:07:51.239Z,23.90
2024-03-11T23:10:19.639Z,24.00
2024-03-11T23:12:50.396Z,24.30
2024-03-11T23:15:23.830Z,25.00
2024-03-11T23:17:52.828Z,24.10
2024-03-11T23:20:22.805Z,24.20
2024-03-11T23:22:51.487Z,24.70
2024-03-11T23:25:22.978Z,23.10
2024-03-11T23:27:58.713Z,24.50
2024-03-11T23:30:29.285Z,23.40
2024-03-11T23:32:57.684Z,24.50
2024-03-11T23:35:29.183Z,23.40
2024-03-11T23:37:59.298Z,24.10
2024-03-11T23:40:27.387Z,23.30
2024-03-11T23:42:56.762Z,23.90
2024-03-11T23:45:24.776Z,25.10
2024-03-11T23:47:53.343Z,23.50
2024-03-11T23:50:22.390Z,24.30
2024-03-11T23:52:51.645Z,24.60
2024-03-11T23:55:21.248Z,24.00
2024-03-11T23:57:49.529Z,22.60
